sensor_id;sensor_type;location;lat;lon;timestamp;P1;durP1;ratioP1;P2;durP2;ratioP2
23519;SDS011;11936;50.820;4.336;2023-07-28T00:01:30;4.63;;;3.03;;
23519;SDS011;11936;50.820;4.336;2023-07-28T00:03:55;5.47;;;2.95;;
23519;SDS011;11936;50.820;4.336;2023-07-28T00:06:22;4.15;;;3.15;;
23519;SDS011;11936;50.820;4.336;2023-07-28T00:08:48;3.85;;;2.95;;
23519;SDS011;11936;50.820;4.336;2023-07-28T00:11:14;4.20;;;2.88;;
23519;SDS011;11936;50.820;4.336;2023-07-28T00:13:41;5.97;;;3.58;;
23519;SDS011;11936;50.820;4.336;2023-07-28T00:16:07;8.15;;;3.20;;
23519;SDS011;11936;50.820;4.336;2023-07-28T00:18:34;4.88;;;3.35;;
23519;SDS011;11936;50.820;4.336;2023-07-28T00:20:59;6.00;;;3.13;;
23519;SDS011;11936;50.820;4.336;2023-07-28T00:23:25;5.32;;;2.67;;
23519;SDS011;11936;50.820;4.336;2023-07-28T00:25:51;5.82;;;3.28;;
23519;SDS011;11936;50.820;4.336;2023-07-28T00:28:17;3.25;;;2.70;;
23519;SDS011;11936;50.820;4.336;2023-07-28T00:30:43;2.55;;;2.35;;
23519;SDS011;11936;50.820;4.336;2023-07-28T00:33:08;4.38;;;3.13;;
23519;SDS011;11936;50.820;4.336;2023-07-28T00:35:34;4.80;;;3.38;;
23519;SDS011;11936;50.820;4.336;2023-07-28T00:38:00;3.25;;;2.95;;
23519;SDS011;11936;50.820;4.336;2023-07-28T00:40:25;5.40;;;3.58;;
23519;SDS011;11936;50.820;4.336;2023-07-28T00:42:51;5.53;;;3.38;;
23519;SDS011;11936;50.820;4.336;2023-07-28T00:45:17;4.75;;;3.65;;
23519;SDS011;11936;50.820;4.336;2023-07-28T00:47:42;7.07;;;3.70;;
23519;SDS011;11936;50.820;4.336;2023-07-28T00:50:09;6.40;;;4.07;;
23519;SDS011;11936;50.820;4.336;2023-07-28T00:52:36;5.55;;;3.47;;
23519;SDS011;11936;50.820;4.336;2023-07-28T00:55:02;3.63;;;3.05;;
23519;SDS011;11936;50.820;4.336;2023-07-28T00:57:28;5.20;;;3.08;;
23519;SDS011;11936;50.820;4.336;2023-07-28T00:59:54;3.03;;;2.78;;
23519;SDS011;11936;50.820;4.336;2023-07-28T01:02:19;5.78;;;3.20;;
23519;SDS011;11936;50.820;4.336;2023-07-28T01:04:46;6.18;;;4.07;;
23519;SDS011;11936;50.820;4.336;2023-07-28T01:07:57;4.80;;;3.55;;
23519;SDS011;11936;50.820;4.336;2023-07-28T01:10:10;5.97;;;3.78;;
23519;SDS011;11936;50.820;4.336;2023-07-28T01:12:39;4.50;;;3.35;;
23519;SDS011;11936;50.820;4.336;2023-07-28T01:15:05;4.18;;;3.50;;
23519;SDS011;11936;50.820;4.336;2023-07-28T01:17:31;5.00;;;3.22;;
23519;SDS011;11936;50.820;4.336;2023-07-28T01:19:57;5.82;;;3.60;;
23519;SDS011;11936;50.820;4.336;2023-07-28T01:28:04;4.68;;;4.03;;
23519;SDS011;11936;50.820;4.336;2023-07-28T01:30:30;4.57;;;4.03;;
23519;SDS011;11936;50.820;4.336;2023-07-28T01:32:56;6.80;;;4.30;;
23519;SDS011;11936;50.820;4.336;2023-07-28T01:35:23;4.30;;;3.90;;
23519;SDS011;11936;50.820;4.336;2023-07-28T01:37:49;7.43;;;4.20;;
23519;SDS011;11936;50.820;4.336;2023-07-28T01:42:43;7.18;;;4.15;;
23519;SDS011;11936;50.820;4.336;2023-07-28T01:45:09;4.95;;;4.10;;
23519;SDS011;11936;50.820;4.336;2023-07-28T01:47:35;6.38;;;4.43;;
23519;SDS011;11936;50.820;4.336;2023-07-28T01:50:01;6.10;;;4.85;;
23519;SDS011;11936;50.820;4.336;2023-07-28T01:52:27;8.48;;;5.13;;
23519;SDS011;11936;50.820;4.336;2023-07-28T01:54:52;7.88;;;5.45;;
23519;SDS011;11936;50.820;4.336;2023-07-28T01:57:18;8.98;;;5.25;;
23519;SDS011;11936;50.820;4.336;2023-07-28T01:59:43;9.35;;;5.32;;
23519;SDS011;11936;50.820;4.336;2023-07-28T02:02:09;8.55;;;5.55;;
23519;SDS011;11936;50.820;4.336;2023-07-28T02:04:35;9.18;;;5.78;;
23519;SDS011;11936;50.820;4.336;2023-07-28T02:07:00;9.38;;;5.82;;
23519;SDS011;11936;50.820;4.336;2023-07-28T02:09:26;8.30;;;5.88;;
23519;SDS011;11936;50.820;4.336;2023-07-28T02:11:51;10.77;;;6.40;;
23519;SDS011;11936;50.820;4.336;2023-07-28T02:14:17;7.78;;;5.38;;
23519;SDS011;11936;50.820;4.336;2023-07-28T02:16:43;9.80;;;5.78;;
23519;SDS011;11936;50.820;4.336;2023-07-28T02:19:08;10.55;;;5.72;;
23519;SDS011;11936;50.820;4.336;2023-07-28T02:21:34;7.82;;;5.57;;
23519;SDS011;11936;50.820;4.336;2023-07-28T02:24:00;6.78;;;5.28;;
23519;SDS011;11936;50.820;4.336;2023-07-28T02:26:25;12.40;;;5.90;;
23519;SDS011;11936;50.820;4.336;2023-07-28T02:28:51;7.75;;;5.68;;
23519;SDS011;11936;50.820;4.336;2023-07-28T02:31:16;10.77;;;5.85;;
23519;SDS011;11936;50.820;4.336;2023-07-28T02:33:42;9.43;;;5.90;;
23519;SDS011;11936;50.820;4.336;2023-07-28T02:36:07;6.25;;;5.57;;
23519;SDS011;11936;50.820;4.336;2023-07-28T02:38:33;9.00;;;5.97;;
23519;SDS011;11936;50.820;4.336;2023-07-28T02:40:59;6.22;;;5.63;;
23519;SDS011;11936;50.820;4.336;2023-07-28T02:43:24;19.27;;;5.93;;
23519;SDS011;11936;50.820;4.336;2023-07-28T02:45:53;12.57;;;5.57;;
23519;SDS011;11936;50.820;4.336;2023-07-28T02:48:20;8.93;;;5.70;;
23519;SDS011;11936;50.820;4.336;2023-07-28T02:50:51;17.90;;;5.82;;
23519;SDS011;11936;50.820;4.336;2023-07-28T02:53:17;7.90;;;5.38;;
23519;SDS011;11936;50.820;4.336;2023-07-28T02:55:43;9.35;;;5.13;;
23519;SDS011;11936;50.820;4.336;2023-07-28T02:58:10;7.78;;;5.38;;
23519;SDS011;11936;50.820;4.336;2023-07-28T03:00:42;7.18;;;4.68;;
23519;SDS011;11936;50.820;4.336;2023-07-28T03:03:09;6.32;;;4.72;;
23519;SDS011;11936;50.820;4.336;2023-07-28T03:05:36;6.55;;;4.93;;
23519;SDS011;11936;50.820;4.336;2023-07-28T03:08:02;6.45;;;4.70;;
23519;SDS011;11936;50.820;4.336;2023-07-28T03:10:28;7.57;;;5.10;;
23519;SDS011;11936;50.820;4.336;2023-07-28T03:12:53;6.35;;;5.07;;
23519;SDS011;11936;50.820;4.336;2023-07-28T03:15:20;8.85;;;5.03;;
23519;SDS011;11936;50.820;4.336;2023-07-28T03:17:49;7.68;;;4.80;;
23519;SDS011;11936;50.820;4.336;2023-07-28T03:20:15;11.73;;;4.97;;
23519;SDS011;11936;50.820;4.336;2023-07-28T03:22:41;7.70;;;4.22;;
23519;SDS011;11936;50.820;4.336;2023-07-28T03:25:07;8.18;;;5.03;;
23519;SDS011;11936;50.820;4.336;2023-07-28T03:27:33;5.90;;;4.72;;
23519;SDS011;11936;50.820;4.336;2023-07-28T03:29:59;6.38;;;4.63;;
23519;SDS011;11936;50.820;4.336;2023-07-28T03:32:25;6.63;;;4.10;;
23519;SDS011;11936;50.820;4.336;2023-07-28T03:34:50;6.60;;;4.47;;
23519;SDS011;11936;50.820;4.336;2023-07-28T03:37:16;6.63;;;4.32;;
23519;SDS011;11936;50.820;4.336;2023-07-28T03:39:41;6.15;;;4.25;;
23519;SDS011;11936;50.820;4.336;2023-07-28T03:42:07;6.60;;;4.40;;
23519;SDS011;11936;50.820;4.336;2023-07-28T03:44:33;7.78;;;4.18;;
23519;SDS011;11936;50.820;4.336;2023-07-28T03:46:59;8.20;;;4.60;;
23519;SDS011;11936;50.820;4.336;2023-07-28T03:49:24;11.48;;;4.55;;
23519;SDS011;11936;50.820;4.336;2023-07-28T03:51:50;4.57;;;4.18;;
23519;SDS011;11936;50.820;4.336;2023-07-28T03:54:17;9.60;;;4.70;;
23519;SDS011;11936;50.820;4.336;2023-07-28T03:56:42;5.72;;;3.97;;
23519;SDS011;11936;50.820;4.336;2023-07-28T03:59:08;8.90;;;4.60;;
23519;SDS011;11936;50.820;4.336;2023-07-28T04:01:33;10.15;;;4.30;;
23519;SDS011;11936;50.820;4.336;2023-07-28T04:03:59;8.88;;;4.60;;
23519;SDS011;11936;50.820;4.336;2023-07-28T04:06:44;4.07;;;3.78;;
23519;SDS011;11936;50.820;4.336;2023-07-28T04:09:13;6.63;;;4.00;;
23519;SDS011;11936;50.820;4.336;2023-07-28T04:11:40;8.50;;;3.83;;
23519;SDS011;11936;50.820;4.336;2023-07-28T04:14:06;5.22;;;3.78;;
23519;SDS011;11936;50.820;4.336;2023-07-28T04:16:32;3.95;;;3.30;;
23519;SDS011;11936;50.820;4.336;2023-07-28T04:18:58;4.95;;;3.58;;
23519;SDS011;11936;50.820;4.336;2023-07-28T04:21:23;6.95;;;3.72;;
23519;SDS011;11936;50.820;4.336;2023-07-28T04:23:49;3.90;;;3.50;;
23519;SDS011;11936;50.820;4.336;2023-07-28T04:26:16;5.43;;;3.40;;
23519;SDS011;11936;50.820;4.336;2023-07-28T04:28:41;4.63;;;2.95;;
23519;SDS011;11936;50.820;4.336;2023-07-28T04:31:07;4.70;;;2.88;;
23519;SDS011;11936;50.820;4.336;2023-07-28T04:33:33;4.43;;;2.75;;
23519;SDS011;11936;50.820;4.336;2023-07-28T04:35:59;6.97;;;3.28;;
23519;SDS011;11936;50.820;4.336;2023-07-28T04:38:25;5.72;;;3.38;;
23519;SDS011;11936;50.820;4.336;2023-07-28T04:40:51;8.85;;;3.10;;
23519;SDS011;11936;50.820;4.336;2023-07-28T04:43:17;4.05;;;2.72;;
23519;SDS011;11936;50.820;4.336;2023-07-28T04:45:44;4.13;;;2.63;;
23519;SDS011;11936;50.820;4.336;2023-07-28T04:48:10;4.05;;;2.65;;
23519;SDS011;11936;50.820;4.336;2023-07-28T04:50:35;4.72;;;2.80;;
23519;SDS011;11936;50.820;4.336;2023-07-28T04:53:01;2.92;;;2.72;;
23519;SDS011;11936;50.820;4.336;2023-07-28T04:55:27;10.50;;;2.35;;
23519;SDS011;11936;50.820;4.336;2023-07-28T04:57:53;7.38;;;2.67;;
23519;SDS011;11936;50.820;4.336;2023-07-28T05:00:18;3.05;;;2.75;;
23519;SDS011;11936;50.820;4.336;2023-07-28T05:02:44;2.90;;;2.63;;
23519;SDS011;11936;50.820;4.336;2023-07-28T05:05:10;7.38;;;2.83;;
23519;SDS011;11936;50.820;4.336;2023-07-28T05:07:35;3.90;;;2.35;;
23519;SDS011;11936;50.820;4.336;2023-07-28T05:10:01;8.32;;;3.22;;
23519;SDS011;11936;50.820;4.336;2023-07-28T05:12:27;2.80;;;2.60;;
23519;SDS011;11936;50.820;4.336;2023-07-28T05:14:53;4.20;;;2.63;;
23519;SDS011;11936;50.820;4.336;2023-07-28T05:17:18;4.80;;;3.03;;
23519;SDS011;11936;50.820;4.336;2023-07-28T05:19:44;7.65;;;3.08;;
23519;SDS011;11936;50.820;4.336;2023-07-28T05:22:10;4.95;;;2.17;;
23519;SDS011;11936;50.820;4.336;2023-07-28T05:24:35;3.38;;;2.40;;
23519;SDS011;11936;50.820;4.336;2023-07-28T05:27:01;3.63;;;2.22;;
23519;SDS011;11936;50.820;4.336;2023-07-28T05:29:27;2.35;;;2.00;;
23519;SDS011;11936;50.820;4.336;2023-07-28T05:31:52;2.63;;;2.42;;
23519;SDS011;11936;50.820;4.336;2023-07-28T05:34:18;2.67;;;2.25;;
23519;SDS011;11936;50.820;4.336;2023-07-28T05:36:43;2.97;;;2.13;;
23519;SDS011;11936;50.820;4.336;2023-07-28T05:39:09;2.70;;;1.98;;
23519;SDS011;11936;50.820;4.336;2023-07-28T05:41:36;5.63;;;2.40;;
23519;SDS011;11936;50.820;4.336;2023-07-28T05:44:02;3.55;;;1.98;;
23519;SDS011;11936;50.820;4.336;2023-07-28T05:46:28;2.08;;;1.85;;
23519;SDS011;11936;50.820;4.336;2023-07-28T05:48:54;5.97;;;2.20;;
23519;SDS011;11936;50.820;4.336;2023-07-28T05:51:21;2.42;;;2.10;;
23519;SDS011;11936;50.820;4.336;2023-07-28T05:53:46;4.55;;;2.17;;
23519;SDS011;11936;50.820;4.336;2023-07-28T05:56:12;2.42;;;1.70;;
23519;SDS011;11936;50.820;4.336;2023-07-28T05:58:38;1.90;;;1.80;;
23519;SDS011;11936;50.820;4.336;2023-07-28T06:01:03;3.65;;;1.83;;
23519;SDS011;11936;50.820;4.336;2023-07-28T06:03:29;2.55;;;2.35;;
23519;SDS011;11936;50.820;4.336;2023-07-28T06:05:55;2.83;;;2.08;;
23519;SDS011;11936;50.820;4.336;2023-07-28T06:08:21;4.72;;;2.30;;
23519;SDS011;11936;50.820;4.336;2023-07-28T06:10:47;3.80;;;2.38;;
23519;SDS011;11936;50.820;4.336;2023-07-28T06:13:13;5.13;;;2.80;;
23519;SDS011;11936;50.820;4.336;2023-07-28T06:15:39;3.88;;;2.30;;
23519;SDS011;11936;50.820;4.336;2023-07-28T06:18:05;5.95;;;2.78;;
23519;SDS011;11936;50.820;4.336;2023-07-28T06:20:30;4.85;;;2.28;;
23519;SDS011;11936;50.820;4.336;2023-07-28T06:22:56;3.20;;;2.90;;
23519;SDS011;11936;50.820;4.336;2023-07-28T06:25:22;4.28;;;2.50;;
23519;SDS011;11936;50.820;4.336;2023-07-28T06:27:47;2.90;;;2.25;;
23519;SDS011;11936;50.820;4.336;2023-07-28T06:30:13;5.13;;;2.28;;
23519;SDS011;11936;50.820;4.336;2023-07-28T06:32:38;3.83;;;2.35;;
23519;SDS011;11936;50.820;4.336;2023-07-28T06:35:04;4.78;;;2.38;;
23519;SDS011;11936;50.820;4.336;2023-07-28T06:37:32;2.22;;;2.03;;
23519;SDS011;11936;50.820;4.336;2023-07-28T06:39:58;3.47;;;1.95;;
23519;SDS011;11936;50.820;4.336;2023-07-28T06:42:24;2.80;;;1.50;;
23519;SDS011;11936;50.820;4.336;2023-07-28T06:44:50;3.95;;;1.55;;
23519;SDS011;11936;50.820;4.336;2023-07-28T06:47:16;3.72;;;1.58;;
23519;SDS011;11936;50.820;4.336;2023-07-28T06:49:42;6.93;;;2.15;;
23519;SDS011;11936;50.820;4.336;2023-07-28T06:52:08;1.38;;;1.27;;
23519;SDS011;11936;50.820;4.336;2023-07-28T06:54:34;2.70;;;0.88;;
23519;SDS011;11936;50.820;4.336;2023-07-28T06:56:59;2.65;;;0.90;;
23519;SDS011;11936;50.820;4.336;2023-07-28T06:59:25;1.15;;;0.90;;
23519;SDS011;11936;50.820;4.336;2023-07-28T07:01:50;1.92;;;1.00;;
23519;SDS011;11936;50.820;4.336;2023-07-28T07:04:16;0.60;;;0.60;;
23519;SDS011;11936;50.820;4.336;2023-07-28T07:06:42;0.40;;;0.40;;
23519;SDS011;11936;50.820;4.336;2023-07-28T07:09:08;0.70;;;0.70;;
23519;SDS011;11936;50.820;4.336;2023-07-28T07:11:33;0.82;;;0.60;;
23519;SDS011;11936;50.820;4.336;2023-07-28T07:14:00;0.70;;;0.70;;
23519;SDS011;11936;50.820;4.336;2023-07-28T07:16:25;0.68;;;0.55;;
23519;SDS011;11936;50.820;4.336;2023-07-28T07:18:51;0.80;;;0.80;;
23519;SDS011;11936;50.820;4.336;2023-07-28T07:21:17;0.68;;;0.68;;
23519;SDS011;11936;50.820;4.336;2023-07-28T07:23:43;0.90;;;0.90;;
23519;SDS011;11936;50.820;4.336;2023-07-28T07:26:08;3.45;;;1.15;;
23519;SDS011;11936;50.820;4.336;2023-07-28T07:28:34;1.35;;;0.80;;
23519;SDS011;11936;50.820;4.336;2023-07-28T07:31:00;1.05;;;0.90;;
23519;SDS011;11936;50.820;4.336;2023-07-28T07:33:26;1.38;;;1.27;;
23519;SDS011;11936;50.820;4.336;2023-07-28T07:35:52;1.17;;;1.08;;
23519;SDS011;11936;50.820;4.336;2023-07-28T07:38:18;2.85;;;1.17;;
23519;SDS011;11936;50.820;4.336;2023-07-28T07:40:47;3.13;;;1.70;;
23519;SDS011;11936;50.820;4.336;2023-07-28T07:43:13;3.20;;;1.55;;
23519;SDS011;11936;50.820;4.336;2023-07-28T07:45:45;2.65;;;1.50;;
23519;SDS011;11936;50.820;4.336;2023-07-28T07:48:12;2.05;;;1.48;;
23519;SDS011;11936;50.820;4.336;2023-07-28T07:50:38;2.70;;;1.77;;
23519;SDS011;11936;50.820;4.336;2023-07-28T07:53:03;1.88;;;1.60;;
23519;SDS011;11936;50.820;4.336;2023-07-28T07:55:29;2.67;;;1.90;;
23519;SDS011;11936;50.820;4.336;2023-07-28T07:57:56;4.13;;;2.13;;
23519;SDS011;11936;50.820;4.336;2023-07-28T08:00:22;2.38;;;2.17;;
23519;SDS011;11936;50.820;4.336;2023-07-28T08:02:48;2.95;;;1.90;;
23519;SDS011;11936;50.820;4.336;2023-07-28T08:05:14;3.30;;;2.20;;
23519;SDS011;11936;50.820;4.336;2023-07-28T08:07:40;2.28;;;1.80;;
23519;SDS011;11936;50.820;4.336;2023-07-28T08:10:06;4.57;;;2.58;;
23519;SDS011;11936;50.820;4.336;2023-07-28T08:12:32;2.40;;;1.90;;
23519;SDS011;11936;50.820;4.336;2023-07-28T08:14:58;1.65;;;1.40;;
23519;SDS011;11936;50.820;4.336;2023-07-28T08:17:23;1.70;;;1.60;;
23519;SDS011;11936;50.820;4.336;2023-07-28T08:19:49;1.52;;;1.42;;
23519;SDS011;11936;50.820;4.336;2023-07-28T08:22:15;3.50;;;1.73;;
23519;SDS011;11936;50.820;4.336;2023-07-28T08:24:40;1.85;;;1.40;;
23519;SDS011;11936;50.820;4.336;2023-07-28T08:27:06;2.22;;;1.10;;
23519;SDS011;11936;50.820;4.336;2023-07-28T08:29:32;2.38;;;1.10;;
23519;SDS011;11936;50.820;4.336;2023-07-28T08:31:57;1.70;;;1.23;;
23519;SDS011;11936;50.820;4.336;2023-07-28T08:34:23;2.45;;;1.17;;
23519;SDS011;11936;50.820;4.336;2023-07-28T08:36:48;2.13;;;1.40;;
23519;SDS011;11936;50.820;4.336;2023-07-28T08:39:14;2.85;;;1.52;;
23519;SDS011;11936;50.820;4.336;2023-07-28T08:41:40;2.95;;;0.90;;
23519;SDS011;11936;50.820;4.336;2023-07-28T08:44:06;1.50;;;1.05;;
23519;SDS011;11936;50.820;4.336;2023-07-28T08:46:32;0.77;;;0.65;;
23519;SDS011;11936;50.820;4.336;2023-07-28T08:48:59;1.15;;;1.05;;
23519;SDS011;11936;50.820;4.336;2023-07-28T08:51:26;1.38;;;1.00;;
23519;SDS011;11936;50.820;4.336;2023-07-28T08:53:52;1.00;;;0.80;;
23519;SDS011;11936;50.820;4.336;2023-07-28T08:56:17;6.28;;;1.00;;
23519;SDS011;11936;50.820;4.336;2023-07-28T08:58:44;2.25;;;1.13;;
23519;SDS011;11936;50.820;4.336;2023-07-28T09:01:10;8.50;;;1.83;;
23519;SDS011;11936;50.820;4.336;2023-07-28T09:03:35;6.70;;;1.35;;
23519;SDS011;11936;50.820;4.336;2023-07-28T09:06:06;4.65;;;1.40;;
23519;SDS011;11936;50.820;4.336;2023-07-28T09:08:35;4.80;;;1.48;;
23519;SDS011;11936;50.820;4.336;2023-07-28T09:11:05;4.68;;;1.30;;
23519;SDS011;11936;50.820;4.336;2023-07-28T09:13:39;1.45;;;1.00;;
23519;SDS011;11936;50.820;4.336;2023-07-28T09:16:17;2.10;;;1.17;;
23519;SDS011;11936;50.820;4.336;2023-07-28T09:18:44;2.28;;;1.08;;
23519;SDS011;11936;50.820;4.336;2023-07-28T09:21:18;3.88;;;0.90;;
23519;SDS011;11936;50.820;4.336;2023-07-28T09:23:46;3.40;;;1.00;;
23519;SDS011;11936;50.820;4.336;2023-07-28T09:26:12;2.35;;;1.08;;
23519;SDS011;11936;50.820;4.336;2023-07-28T09:28:40;1.30;;;1.20;;
23519;SDS011;11936;50.820;4.336;2023-07-28T09:31:06;1.63;;;0.88;;
23519;SDS011;11936;50.820;4.336;2023-07-28T09:33:33;0.90;;;0.90;;
23519;SDS011;11936;50.820;4.336;2023-07-28T09:36:07;2.25;;;0.98;;
23519;SDS011;11936;50.820;4.336;2023-07-28T09:38:35;2.47;;;1.63;;
23519;SDS011;11936;50.820;4.336;2023-07-28T09:43:30;5.32;;;1.75;;
23519;SDS011;11936;50.820;4.336;2023-07-28T09:45:56;2.25;;;1.70;;
23519;SDS011;11936;50.820;4.336;2023-07-28T09:48:22;1.65;;;1.55;;
23519;SDS011;11936;50.820;4.336;2023-07-28T09:50:50;2.00;;;1.80;;
23519;SDS011;11936;50.820;4.336;2023-07-28T09:53:16;2.13;;;1.80;;
23519;SDS011;11936;50.820;4.336;2023-07-28T09:55:44;1.98;;;1.77;;
23519;SDS011;11936;50.820;4.336;2023-07-28T09:58:11;2.17;;;2.00;;
23519;SDS011;11936;50.820;4.336;2023-07-28T10:14:34;2.30;;;2.10;;
23519;SDS011;11936;50.820;4.336;2023-07-28T10:17:02;2.50;;;2.22;;
23519;SDS011;11936;50.820;4.336;2023-07-28T10:19:38;3.40;;;2.47;;
23519;SDS011;11936;50.820;4.336;2023-07-28T10:22:08;4.47;;;2.63;;
23519;SDS011;11936;50.820;4.336;2023-07-28T10:24:51;7.93;;;3.50;;
23519;SDS011;11936;50.820;4.336;2023-07-28T10:29:59;3.63;;;3.33;;
23519;SDS011;11936;50.820;4.336;2023-07-28T10:32:34;7.00;;;4.03;;
23519;SDS011;11936;50.820;4.336;2023-07-28T10:35:06;3.88;;;3.58;;
23519;SDS011;11936;50.820;4.336;2023-07-28T10:37:35;3.95;;;3.55;;
23519;SDS011;11936;50.820;4.336;2023-07-28T10:42:52;10.80;;;3.80;;
23519;SDS011;11936;50.820;4.336;2023-07-28T10:45:19;4.45;;;3.65;;
23519;SDS011;11936;50.820;4.336;2023-07-28T10:47:45;6.18;;;3.53;;
23519;SDS011;11936;50.820;4.336;2023-07-28T10:50:12;3.78;;;3.17;;
23519;SDS011;11936;50.820;4.336;2023-07-28T10:52:39;3.50;;;3.20;;
23519;SDS011;11936;50.820;4.336;2023-07-28T10:55:11;4.93;;;3.72;;
23519;SDS011;11936;50.820;4.336;2023-07-28T10:57:38;4.90;;;4.32;;
23519;SDS011;11936;50.820;4.336;2023-07-28T11:00:06;6.00;;;4.80;;
23519;SDS011;11936;50.820;4.336;2023-07-28T11:02:43;6.68;;;4.13;;
23519;SDS011;11936;50.820;4.336;2023-07-28T11:05:11;5.18;;;4.20;;
23519;SDS011;11936;50.820;4.336;2023-07-28T11:07:59;4.38;;;3.80;;
23519;SDS011;11936;50.820;4.336;2023-07-28T11:10:30;6.10;;;4.10;;
23519;SDS011;11936;50.820;4.336;2023-07-28T11:12:57;6.07;;;4.28;;
23519;SDS011;11936;50.820;4.336;2023-07-28T11:17:51;4.90;;;3.67;;
23519;SDS011;11936;50.820;4.336;2023-07-28T11:20:18;7.72;;;3.55;;
23519;SDS011;11936;50.820;4.336;2023-07-28T11:22:52;3.40;;;3.10;;
23519;SDS011;11936;50.820;4.336;2023-07-28T11:25:22;5.10;;;3.13;;
23519;SDS011;11936;50.820;4.336;2023-07-28T11:27:49;3.13;;;2.78;;
23519;SDS011;11936;50.820;4.336;2023-07-28T11:30:15;2.70;;;2.50;;
23519;SDS011;11936;50.820;4.336;2023-07-28T11:32:43;4.13;;;2.70;;
23519;SDS011;11936;50.820;4.336;2023-07-28T11:35:11;3.58;;;2.55;;
23519;SDS011;11936;50.820;4.336;2023-07-28T11:37:38;2.28;;;2.00;;
23519;SDS011;11936;50.820;4.336;2023-07-28T11:40:06;2.47;;;2.25;;
23519;SDS011;11936;50.820;4.336;2023-07-28T11:42:36;2.60;;;2.40;;
23519;SDS011;11936;50.820;4.336;2023-07-28T11:45:03;2.88;;;2.42;;
23519;SDS011;11936;50.820;4.336;2023-07-28T11:47:29;2.70;;;2.50;;
23519;SDS011;11936;50.820;4.336;2023-07-28T11:49:55;4.50;;;2.83;;
23519;SDS011;11936;50.820;4.336;2023-07-28T11:52:23;6.40;;;2.55;;
23519;SDS011;11936;50.820;4.336;2023-07-28T11:54:53;2.85;;;2.65;;
23519;SDS011;11936;50.820;4.336;2023-07-28T11:57:19;5.63;;;2.63;;
23519;SDS011;11936;50.820;4.336;2023-07-28T11:59:46;2.50;;;2.30;;
23519;SDS011;11936;50.820;4.336;2023-07-28T12:02:11;2.45;;;2.25;;
23519;SDS011;11936;50.820;4.336;2023-07-28T12:04:38;3.28;;;2.03;;
23519;SDS011;11936;50.820;4.336;2023-07-28T12:09:51;2.13;;;1.90;;
23519;SDS011;11936;50.820;4.336;2023-07-28T12:12:17;3.90;;;1.85;;
23519;SDS011;11936;50.820;4.336;2023-07-28T12:14:44;2.13;;;2.03;;
23519;SDS011;11936;50.820;4.336;2023-07-28T12:17:14;3.13;;;2.10;;
23519;SDS011;11936;50.820;4.336;2023-07-28T12:19:55;1.80;;;1.70;;
23519;SDS011;11936;50.820;4.336;2023-07-28T12:22:35;1.77;;;1.67;;
23519;SDS011;11936;50.820;4.336;2023-07-28T12:25:04;2.17;;;1.90;;
23519;SDS011;11936;50.820;4.336;2023-07-28T12:27:30;2.90;;;1.92;;
23519;SDS011;11936;50.820;4.336;2023-07-28T12:29:56;1.98;;;1.70;;
23519;SDS011;11936;50.820;4.336;2023-07-28T12:32:22;2.50;;;1.67;;
23519;SDS011;11936;50.820;4.336;2023-07-28T12:34:48;1.63;;;1.50;;
23519;SDS011;11936;50.820;4.336;2023-07-28T12:37:15;1.98;;;1.63;;
23519;SDS011;11936;50.820;4.336;2023-07-28T12:39:40;4.85;;;1.40;;
23519;SDS011;11936;50.820;4.336;2023-07-28T12:42:06;4.97;;;1.80;;
23519;SDS011;11936;50.820;4.336;2023-07-28T12:44:33;3.33;;;1.70;;
23519;SDS011;11936;50.820;4.336;2023-07-28T12:46:59;3.03;;;1.63;;
23519;SDS011;11936;50.820;4.336;2023-07-28T12:49:25;4.00;;;1.40;;
23519;SDS011;11936;50.820;4.336;2023-07-28T12:51:50;3.20;;;1.52;;
23519;SDS011;11936;50.820;4.336;2023-07-28T12:54:16;3.03;;;1.48;;
23519;SDS011;11936;50.820;4.336;2023-07-28T12:56:42;3.92;;;1.73;;
23519;SDS011;11936;50.820;4.336;2023-07-28T12:59:07;1.92;;;1.70;;
23519;SDS011;11936;50.820;4.336;2023-07-28T13:01:33;2.53;;;1.40;;
23519;SDS011;11936;50.820;4.336;2023-07-28T13:04:01;4.55;;;1.52;;
23519;SDS011;11936;50.820;4.336;2023-07-28T13:06:26;1.35;;;1.25;;
23519;SDS011;11936;50.820;4.336;2023-07-28T13:08:52;1.67;;;1.58;;
23519;SDS011;11936;50.820;4.336;2023-07-28T13:11:17;1.40;;;1.30;;
23519;SDS011;11936;50.820;4.336;2023-07-28T13:13:43;2.20;;;1.67;;
23519;SDS011;11936;50.820;4.336;2023-07-28T13:16:09;1.20;;;1.10;;
23519;SDS011;11936;50.820;4.336;2023-07-28T13:18:34;1.65;;;1.55;;
23519;SDS011;11936;50.820;4.336;2023-07-28T13:21:00;4.40;;;1.55;;
23519;SDS011;11936;50.820;4.336;2023-07-28T13:23:25;1.33;;;1.23;;
23519;SDS011;11936;50.820;4.336;2023-07-28T13:25:51;2.88;;;1.30;;
23519;SDS011;11936;50.820;4.336;2023-07-28T13:28:17;1.67;;;1.35;;
23519;SDS011;11936;50.820;4.336;2023-07-28T13:30:43;2.38;;;1.85;;
23519;SDS011;11936;50.820;4.336;2023-07-28T13:33:09;1.73;;;1.50;;
23519;SDS011;11936;50.820;4.336;2023-07-28T13:35:34;3.83;;;1.33;;
23519;SDS011;11936;50.820;4.336;2023-07-28T13:38:00;4.15;;;1.50;;
23519;SDS011;11936;50.820;4.336;2023-07-28T13:40:25;3.20;;;1.52;;
23519;SDS011;11936;50.820;4.336;2023-07-28T13:42:51;1.30;;;1.20;;
23519;SDS011;11936;50.820;4.336;2023-07-28T13:45:18;1.70;;;1.60;;
23519;SDS011;11936;50.820;4.336;2023-07-28T13:47:43;2.63;;;1.35;;
23519;SDS011;11936;50.820;4.336;2023-07-28T13:50:09;3.47;;;1.50;;
23519;SDS011;11936;50.820;4.336;2023-07-28T13:52:34;10.75;;;1.75;;
23519;SDS011;11936;50.820;4.336;2023-07-28T13:55:00;1.67;;;1.52;;
23519;SDS011;11936;50.820;4.336;2023-07-28T13:57:26;1.52;;;1.42;;
23519;SDS011;11936;50.820;4.336;2023-07-28T13:59:51;1.58;;;1.25;;
23519;SDS011;11936;50.820;4.336;2023-07-28T14:02:17;4.47;;;1.23;;
23519;SDS011;11936;50.820;4.336;2023-07-28T14:04:45;1.30;;;1.20;;
23519;SDS011;11936;50.820;4.336;2023-07-28T14:07:11;4.40;;;1.52;;
23519;SDS011;11936;50.820;4.336;2023-07-28T14:09:36;3.42;;;1.45;;
23519;SDS011;11936;50.820;4.336;2023-07-28T14:12:03;2.20;;;1.50;;
23519;SDS011;11936;50.820;4.336;2023-07-28T14:14:29;5.15;;;1.35;;
23519;SDS011;11936;50.820;4.336;2023-07-28T14:16:54;2.95;;;1.60;;
23519;SDS011;11936;50.820;4.336;2023-07-28T14:19:22;1.75;;;1.25;;
23519;SDS011;11936;50.820;4.336;2023-07-28T14:21:48;2.83;;;1.83;;
23519;SDS011;11936;50.820;4.336;2023-07-28T14:24:14;1.98;;;1.20;;
23519;SDS011;11936;50.820;4.336;2023-07-28T14:26:39;3.05;;;1.30;;
23519;SDS011;11936;50.820;4.336;2023-07-28T14:29:05;1.95;;;1.60;;
23519;SDS011;11936;50.820;4.336;2023-07-28T14:31:30;3.58;;;1.30;;
23519;SDS011;11936;50.820;4.336;2023-07-28T14:33:56;1.55;;;1.23;;
23519;SDS011;11936;50.820;4.336;2023-07-28T14:36:22;3.53;;;1.40;;
23519;SDS011;11936;50.820;4.336;2023-07-28T14:38:48;1.63;;;1.30;;
23519;SDS011;11936;50.820;4.336;2023-07-28T14:41:13;3.67;;;1.42;;
23519;SDS011;11936;50.820;4.336;2023-07-28T14:43:39;4.43;;;1.48;;
23519;SDS011;11936;50.820;4.336;2023-07-28T14:46:04;2.55;;;1.27;;
23519;SDS011;11936;50.820;4.336;2023-07-28T14:48:30;2.65;;;1.52;;
23519;SDS011;11936;50.820;4.336;2023-07-28T14:50:55;2.38;;;1.20;;
23519;SDS011;11936;50.820;4.336;2023-07-28T14:53:28;3.67;;;1.50;;
23519;SDS011;11936;50.820;4.336;2023-07-28T14:55:54;1.73;;;1.27;;
23519;SDS011;11936;50.820;4.336;2023-07-28T14:58:20;3.55;;;1.38;;
23519;SDS011;11936;50.820;4.336;2023-07-28T15:00:46;1.80;;;1.23;;
23519;SDS011;11936;50.820;4.336;2023-07-28T15:03:11;1.60;;;1.40;;
23519;SDS011;11936;50.820;4.336;2023-07-28T15:05:37;2.22;;;1.52;;
23519;SDS011;11936;50.820;4.336;2023-07-28T15:08:03;2.33;;;1.27;;
23519;SDS011;11936;50.820;4.336;2023-07-28T15:10:28;1.83;;;1.73;;
23519;SDS011;11936;50.820;4.336;2023-07-28T15:12:54;3.90;;;1.40;;
23519;SDS011;11936;50.820;4.336;2023-07-28T15:15:19;1.75;;;1.30;;
23519;SDS011;11936;50.820;4.336;2023-07-28T15:17:45;3.83;;;1.95;;
23519;SDS011;11936;50.820;4.336;2023-07-28T15:20:11;2.67;;;1.45;;